Portada
METAR-TAF:

METAR-TAF

Aeroports :

Pine Ridge, Dakota del Sud, Estats Units d'Amèrica

latitud: 43-01-32N, longitud: 102-31-23W, altitud: 1015 m

Observació

L'informe es va fer fa 42 minuts, a les 05:52 UTC
Vent 5 kt del Est
Temperatura 17°C
Humitat 100%
Pressió 1021 hPa
Visibilitat: 11.3 km
Cel clar

METAR: KIEN 200552Z AUTO 09005KT 7SM CLR 17/17 A3016 RMK AO2 SLP183 60031 T01670167 10267 20161 51014

Hora: 00:34 (06:34 UTC)


TAF: manca

Observacions i pronòstics meteorològics de més de 4000 aeroports (METAR i TAF).

Les estacions disponibles són els punts grocs i vermells al mapa.

Posi el ratolí al punt desitjat per veure el nom de l'estació.

Feu clic per veure les observacions i els pronòstics meteorològics.

Per canviar el mapa: feu clic els botons verds amb una creu de color negre per apropar; al botó verd amb un guió per allunyar la imatge; o en les fletxes verdes per a mapes adjacents.


METAR-TAF: